createdAt,value
2019-02-05T00:00:12.354Z,8.87
2019-02-05T00:02:40.796Z,11.90
2019-02-05T00:05:09.424Z,11.80
2019-02-05T00:07:37.696Z,8.77
2019-02-05T00:10:08.386Z,10.97
2019-02-05T00:12:36.656Z,10.17
2019-02-05T00:15:06.348Z,14.00
2019-02-05T00:17:34.715Z,13.47
2019-02-05T00:20:02.976Z,10.60
2019-02-05T00:22:31.238Z,10.47
2019-02-05T00:24:59.516Z,9.40
2019-02-05T00:27:27.851Z,12.17
2019-02-05T00:29:56.092Z,12.47
2019-02-05T00:32:24.375Z,16.77
2019-02-05T00:34:52.734Z,16.43
2019-02-05T00:37:21.389Z,12.40
2019-02-05T00:39:49.723Z,12.73
2019-02-05T00:42:17.999Z,12.37
2019-02-05T00:44:46.261Z,13.47
2019-02-05T00:47:14.530Z,10.70
2019-02-05T00:49:42.802Z,12.83
2019-02-05T00:52:11.088Z,12.73
2019-02-05T00:54:39.351Z,9.73
2019-02-05T00:57:07.637Z,10.13
2019-02-05T00:59:35.967Z,11.50
2019-02-05T01:02:04.228Z,15.17
2019-02-05T01:04:32.579Z,13.93
2019-02-05T01:07:00.861Z,10.97
2019-02-05T01:09:29.401Z,10.77
2019-02-05T01:11:57.740Z,12.40
2019-02-05T01:14:26.007Z,11.80
2019-02-05T01:16:54.287Z,15.77
2019-02-05T01:19:22.626Z,9.05
2019-02-05T01:21:51.026Z,12.90
2019-02-05T01:24:19.552Z,11.63
2019-02-05T01:26:47.831Z,13.50
2019-02-05T01:29:16.074Z,11.27
2019-02-05T01:31:44.347Z,11.93
2019-02-05T01:34:12.696Z,9.87
2019-02-05T01:36:41.032Z,9.53
2019-02-05T01:39:09.279Z,9.47
2019-02-05T01:41:37.632Z,12.53
2019-02-05T01:44:05.891Z,7.60
2019-02-05T01:46:34.145Z,12.50
2019-02-05T01:49:02.663Z,11.77
2019-02-05T01:51:30.994Z,11.77
2019-02-05T01:53:59.255Z,14.63
2019-02-05T01:56:27.922Z,12.60
2019-02-05T01:58:56.246Z,9.43
2019-02-05T02:01:24.518Z,9.80
2019-02-05T02:03:52.867Z,13.17
2019-02-05T02:06:21.355Z,14.97
2019-02-05T02:08:49.797Z,11.57
2019-02-05T02:11:18.076Z,10.57
2019-02-05T02:13:46.517Z,10.50
2019-02-05T02:16:14.879Z,12.13
2019-02-05T02:18:43.148Z,14.57
2019-02-05T02:21:11.423Z,9.80
2019-02-05T02:23:39.685Z,19.80
2019-02-05T02:26:08.059Z,11.77
2019-02-05T02:28:36.324Z,12.73
2019-02-05T02:31:04.689Z,16.13
2019-02-05T02:33:33.019Z,11.13
2019-02-05T02:36:01.283Z,15.63
2019-02-05T02:38:29.552Z,13.50
2019-02-05T02:41:17.277Z,14.33
2019-02-05T02:43:45.612Z,14.60
2019-02-05T02:46:13.888Z,11.70
2019-02-05T02:48:42.225Z,11.87
2019-02-05T02:51:10.514Z,12.30
2019-02-05T02:53:38.794Z,11.00
2019-02-05T02:56:07.123Z,10.97
2019-02-05T02:58:35.584Z,9.20
2019-02-05T03:01:03.970Z,11.40
2019-02-05T03:03:32.879Z,11.53
2019-02-05T03:06:01.208Z,11.47
2019-02-05T03:08:29.496Z,19.57
2019-02-05T03:10:57.840Z,9.83
2019-02-05T03:13:26.126Z,9.73
2019-02-05T03:15:54.668Z,11.87
2019-02-05T03:18:23.111Z,9.17
2019-02-05T03:20:51.601Z,13.57
2019-02-05T03:23:20.007Z,11.87
2019-02-05T03:25:48.264Z,11.13
2019-02-05T03:28:16.543Z,10.93
2019-02-05T03:30:44.896Z,11.37
2019-02-05T03:33:13.280Z,13.40
2019-02-05T03:35:41.907Z,14.80
2019-02-05T03:38:10.262Z,15.40
2019-02-05T03:41:00.220Z,11.40
2019-02-05T03:43:28.504Z,15.90
2019-02-05T03:45:57.214Z,12.33
2019-02-05T03:48:25.759Z,12.30
2019-02-05T03:51:06.522Z,13.23
2019-02-05T03:53:41.052Z,10.17
2019-02-05T03:56:16.804Z,13.47
2019-02-05T03:58:54.689Z,14.70
2019-02-05T04:01:55.601Z,9.40
2019-02-05T04:04:56.216Z,12.27
2019-02-05T04:07:33.306Z,8.60
2019-02-05T04:10:32.932Z,12.83
2019-02-05T04:13:36.205Z,11.23
2019-02-05T04:16:40.741Z,10.50
2019-02-05T04:19:40.240Z,10.72
2019-02-05T04:22:11.910Z,11.73
2019-02-05T04:24:59.831Z,15.80
2019-02-05T04:27:43.644Z,14.43
2019-02-05T04:30:22.316Z,15.23
2019-02-05T04:33:02.080Z,12.33
2019-02-05T04:35:45.365Z,11.53
2019-02-05T04:38:28.795Z,11.60
2019-02-05T04:41:03.127Z,10.93
2019-02-05T04:43:37.587Z,15.37
2019-02-05T04:46:18.301Z,13.63
2019-02-05T04:48:58.431Z,10.17
2019-02-05T04:51:52.246Z,9.40
2019-02-05T04:54:26.624Z,10.83
2019-02-05T04:57:10.275Z,11.10
2019-02-05T05:00:15.310Z,12.07
2019-02-05T05:03:03.433Z,10.67
2019-02-05T05:05:50.741Z,10.07
2019-02-05T05:08:39.846Z,9.57
2019-02-05T05:11:08.111Z,11.47
2019-02-05T05:13:36.464Z,13.17
2019-02-05T05:16:04.811Z,11.37
2019-02-05T05:18:33.268Z,11.93
2019-02-05T05:21:01.671Z,9.27
2019-02-05T05:23:31.616Z,8.20
2019-02-05T05:25:59.960Z,11.13
2019-02-05T05:28:28.310Z,14.33
2019-02-05T05:30:56.731Z,8.40
2019-02-05T05:33:25.004Z,11.80
2019-02-05T05:35:53.339Z,10.37
2019-02-05T05:38:21.687Z,12.37
2019-02-05T05:40:49.943Z,7.63
2019-02-05T05:43:18.286Z,10.23
2019-02-05T05:45:46.552Z,10.57
2019-02-05T05:48:15.099Z,9.30
2019-02-05T05:50:43.444Z,7.53
2019-02-05T05:53:11.777Z,11.03
2019-02-05T05:55:40.039Z,7.03
2019-02-05T05:58:08.401Z,8.47
2019-02-05T06:00:36.747Z,9.53
2019-02-05T06:03:05.105Z,6.90
2019-02-05T06:05:33.893Z,9.80
2019-02-05T06:08:03.131Z,11.67
2019-02-05T06:10:31.461Z,8.57
2019-02-05T06:12:59.714Z,10.20
2019-02-05T06:15:28.353Z,9.30
2019-02-05T06:17:56.681Z,9.20
2019-02-05T06:20:25.028Z,9.53
2019-02-05T06:22:53.548Z,8.07
2019-02-05T06:25:21.991Z,10.50
2019-02-05T06:27:50.341Z,8.13
2019-02-05T06:30:38.116Z,7.67
2019-02-05T06:33:06.436Z,11.07
2019-02-05T06:35:35.093Z,9.93
2019-02-05T06:38:03.413Z,8.20
2019-02-05T06:40:31.799Z,7.90
2019-02-05T06:43:00.215Z,9.47
2019-02-05T06:45:28.601Z,8.60
2019-02-05T06:47:56.980Z,8.17
2019-02-05T06:50:25.410Z,10.80
2019-02-05T06:52:53.987Z,7.80
2019-02-05T06:55:22.259Z,11.40
2019-02-05T06:57:50.635Z,6.43
2019-02-05T07:00:21.761Z,8.43
2019-02-05T07:02:52.862Z,6.57
2019-02-05T07:05:20.086Z,8.17
2019-02-05T07:07:48.408Z,9.40
2019-02-05T07:10:19.690Z,12.57
2019-02-05T07:12:48.305Z,10.57
2019-02-05T07:15:16.564Z,6.47
2019-02-05T07:17:49.915Z,10.73
2019-02-05T07:20:16.152Z,7.50
2019-02-05T07:22:44.487Z,9.53
2019-02-05T07:25:16.352Z,10.33
2019-02-05T07:27:44.627Z,8.75
2019-02-05T07:30:24.031Z,9.33
2019-02-05T07:32:52.367Z,7.10
2019-02-05T07:35:20.634Z,7.67
2019-02-05T07:37:49.159Z,8.40
2019-02-05T07:40:23.140Z,6.60
2019-02-05T07:42:51.682Z,9.77
2019-02-05T07:45:22.159Z,15.13
2019-02-05T07:47:53.004Z,11.10
2019-02-05T07:50:28.751Z,7.20
2019-02-05T07:52:56.997Z,7.20
2019-02-05T07:55:25.639Z,8.67
2019-02-05T07:57:53.958Z,7.53
2019-02-05T08:00:24.525Z,7.67
2019-02-05T08:02:52.841Z,8.97
2019-02-05T08:05:29.491Z,7.73
2019-02-05T08:07:57.831Z,6.83
2019-02-05T08:10:26.163Z,9.93
2019-02-05T08:12:54.496Z,7.00
2019-02-05T08:15:25.079Z,6.17
2019-02-05T08:17:53.406Z,9.83
2019-02-05T08:20:21.750Z,8.40
2019-02-05T08:22:50.085Z,12.20
2019-02-05T08:25:18.392Z,6.77
2019-02-05T08:27:46.664Z,7.53
2019-02-05T08:30:20.751Z,8.30
2019-02-05T08:32:49.013Z,6.00
2019-02-05T08:35:17.735Z,12.80
2019-02-05T08:37:46.079Z,8.60
2019-02-05T08:40:17.671Z,7.40
2019-02-05T08:42:46.270Z,7.70
2019-02-05T08:45:17.140Z,5.43
2019-02-05T08:47:45.664Z,7.10
2019-02-05T08:50:16.465Z,7.23
2019-02-05T08:52:44.803Z,6.23
2019-02-05T08:55:15.498Z,7.53
2019-02-05T08:57:43.835Z,7.07
2019-02-05T09:00:15.551Z,9.50
2019-02-05T09:02:44.276Z,7.77
2019-02-05T09:05:12.716Z,6.50
2019-02-05T09:07:41.065Z,8.50
2019-02-05T09:10:12.691Z,8.90
2019-02-05T09:12:40.959Z,10.97
2019-02-05T09:15:11.732Z,8.40
2019-02-05T09:17:40.076Z,9.43
2019-02-05T09:20:17.191Z,9.80
2019-02-05T09:22:45.537Z,10.57
2019-02-05T09:25:15.310Z,10.57
2019-02-05T09:27:43.660Z,7.90
2019-02-05T09:30:20.497Z,8.10
2019-02-05T09:32:50.288Z,11.13
2019-02-05T09:35:18.627Z,11.30
2019-02-05T09:37:47.011Z,7.80
2019-02-05T09:40:20.822Z,8.17
2019-02-05T09:42:49.133Z,7.17
2019-02-05T09:45:17.740Z,8.47
2019-02-05T09:47:46.004Z,8.57
2019-02-05T09:50:16.263Z,12.77
2019-02-05T09:52:44.660Z,10.20
2019-02-05T09:55:15.783Z,9.30
2019-02-05T09:57:44.128Z,12.43
2019-02-05T10:00:35.904Z,8.33
2019-02-05T10:03:04.827Z,10.10
2019-02-05T10:05:34.776Z,8.90
2019-02-05T10:08:04.142Z,11.20
2019-02-05T10:10:32.468Z,9.00
2019-02-05T10:13:00.792Z,10.30
2019-02-05T10:15:31.583Z,11.13
2019-02-05T10:18:00.229Z,7.37
2019-02-05T10:20:28.560Z,11.57
2019-02-05T10:22:59.036Z,7.90
2019-02-05T10:25:27.394Z,10.33
2019-02-05T10:27:55.739Z,8.67
2019-02-05T10:30:29.167Z,9.40
2019-02-05T10:32:57.512Z,13.53
2019-02-05T10:35:25.841Z,10.67
2019-02-05T10:37:54.200Z,9.40
2019-02-05T10:40:23.739Z,11.43
2019-02-05T10:42:52.016Z,10.03
2019-02-05T10:45:25.170Z,11.97
2019-02-05T10:47:53.752Z,9.90
2019-02-05T10:50:22.374Z,13.40
2019-02-05T10:52:50.715Z,11.33
2019-02-05T10:55:24.957Z,10.63
2019-02-05T10:57:55.044Z,9.30
2019-02-05T11:00:29.443Z,9.47
2019-02-05T11:02:59.408Z,11.77
2019-02-05T11:05:28.665Z,11.97
2019-02-05T11:07:57.143Z,9.37
2019-02-05T11:10:25.561Z,12.90
2019-02-05T11:12:53.898Z,11.23
2019-02-05T11:15:24.475Z,10.47
2019-02-05T11:17:52.995Z,9.67
2019-02-05T11:20:25.550Z,10.03
2019-02-05T11:22:53.880Z,13.57
2019-02-05T11:25:22.703Z,13.27
2019-02-05T11:27:51.336Z,44.58
2019-02-05T11:30:22.850Z,15.27
2019-02-05T11:32:53.022Z,13.57
2019-02-05T11:35:21.181Z,9.70
2019-02-05T11:37:49.930Z,13.20
2019-02-05T11:40:21.232Z,10.80
2019-02-05T11:42:49.515Z,13.17
2019-02-05T11:45:18.682Z,13.30
2019-02-05T11:47:47.293Z,12.67
2019-02-05T11:50:17.067Z,9.90
2019-02-05T11:52:45.392Z,10.80
2019-02-05T11:55:18.945Z,12.20
2019-02-05T11:57:47.196Z,14.10
2019-02-05T12:00:19.174Z,12.67
2019-02-05T12:02:49.127Z,14.30
2019-02-05T12:05:17.579Z,13.30
2019-02-05T12:07:45.933Z,13.00
2019-02-05T12:10:15.790Z,14.57
2019-02-05T12:12:44.559Z,16.50
2019-02-05T12:15:16.923Z,21.87
2019-02-05T12:17:45.267Z,17.70
2019-02-05T12:20:15.979Z,12.77
2019-02-05T12:22:44.586Z,15.67
2019-02-05T12:25:15.539Z,14.73
2019-02-05T12:27:44.079Z,15.30
2019-02-05T12:30:30.156Z,17.20
2019-02-05T12:33:01.534Z,14.83
2019-02-05T12:35:28.489Z,14.30
2019-02-05T12:37:56.768Z,18.30
2019-02-05T12:40:25.388Z,17.80
2019-02-05T12:42:53.663Z,16.03
2019-02-05T12:45:25.251Z,17.77
2019-02-05T12:47:53.595Z,15.57
2019-02-05T12:50:24.059Z,15.37
2019-02-05T12:52:52.406Z,16.83
2019-02-05T12:55:21.108Z,14.90
2019-02-05T12:57:49.454Z,16.60
2019-02-05T13:00:35.385Z,17.40
2019-02-05T13:03:04.368Z,19.10
2019-02-05T13:05:32.648Z,16.17
2019-02-05T13:08:01.262Z,16.07
2019-02-05T13:10:37.638Z,19.10
2019-02-05T13:13:06.872Z,21.10
2019-02-05T13:15:35.132Z,17.20
2019-02-05T13:18:05.240Z,17.37
2019-02-05T13:20:34.233Z,17.73
2019-02-05T13:23:03.494Z,17.33
2019-02-05T13:25:32.679Z,16.30
2019-02-05T13:28:01.018Z,22.67
2019-02-05T13:30:33.329Z,15.57
2019-02-05T13:33:01.759Z,15.43
2019-02-05T13:35:30.511Z,18.13
2019-02-05T13:37:58.843Z,19.37
2019-02-05T13:40:27.941Z,19.87
2019-02-05T13:42:56.352Z,18.60
2019-02-05T13:45:27.218Z,19.93
2019-02-05T13:47:55.479Z,18.40
2019-02-05T13:50:33.537Z,16.77
2019-02-05T13:53:01.666Z,21.67
2019-02-05T13:55:32.741Z,19.50
2019-02-05T13:58:01.076Z,18.60
2019-02-05T14:00:34.990Z,20.20
2019-02-05T14:03:03.963Z,22.77
2019-02-05T14:05:32.285Z,19.43
2019-02-05T14:08:00.756Z,19.97
2019-02-05T14:10:34.513Z,21.27
2019-02-05T14:13:02.851Z,18.57
2019-02-05T14:15:33.360Z,20.03
2019-02-05T14:18:02.001Z,33.13
2019-02-05T14:20:30.279Z,21.57
2019-02-05T14:22:58.543Z,23.10
2019-02-05T14:25:26.879Z,21.47
2019-02-05T14:27:55.125Z,21.17
2019-02-05T14:30:40.753Z,23.63
2019-02-05T14:33:09.011Z,23.13
2019-02-05T14:35:37.374Z,20.67
2019-02-05T14:38:06.382Z,28.93
2019-02-05T14:40:34.729Z,22.50
2019-02-05T14:43:03.077Z,21.57
2019-02-05T14:45:31.334Z,21.53
2019-02-05T14:47:59.844Z,21.03
2019-02-05T14:50:41.967Z,25.43
2019-02-05T14:53:10.475Z,21.97
2019-02-05T14:55:38.728Z,23.20
2019-02-05T14:58:08.721Z,26.07
2019-02-05T15:00:37.526Z,23.67
2019-02-05T15:03:07.911Z,25.20
2019-02-05T15:05:36.254Z,23.43
2019-02-05T15:08:05.996Z,29.60
2019-02-05T15:10:34.506Z,23.97
2019-02-05T15:13:02.749Z,22.73
2019-02-05T15:15:31.398Z,24.87
2019-02-05T15:17:59.641Z,24.63
2019-02-05T15:20:30.808Z,22.83
2019-02-05T15:22:59.079Z,26.30
2019-02-05T15:25:27.527Z,24.30
2019-02-05T15:27:55.819Z,25.90
2019-02-05T15:30:26.683Z,25.77
2019-02-05T15:33:12.819Z,25.83
2019-02-05T15:35:42.724Z,23.97
2019-02-05T15:38:10.992Z,23.27
2019-02-05T15:40:39.326Z,24.80
2019-02-05T15:43:07.867Z,27.23
2019-02-05T15:45:36.136Z,27.60
2019-02-05T15:48:04.602Z,28.53
2019-02-05T15:50:32.886Z,27.07
2019-02-05T15:53:01.136Z,28.03
2019-02-05T15:55:29.479Z,31.93
2019-02-05T15:57:58.180Z,29.67
2019-02-05T16:00:26.535Z,32.10
2019-02-05T16:02:54.795Z,33.47
2019-02-05T16:05:23.068Z,35.47
2019-02-05T16:07:51.321Z,29.27
2019-02-05T16:10:21.991Z,31.53
2019-02-05T16:12:50.322Z,30.03
2019-02-05T16:15:18.868Z,32.60
2019-02-05T16:17:47.129Z,32.27
2019-02-05T16:20:19.109Z,27.17
2019-02-05T16:22:47.419Z,30.27
2019-02-05T16:25:15.933Z,25.77
2019-02-05T16:27:44.243Z,30.97
2019-02-05T16:30:17.500Z,32.93
2019-02-05T16:32:45.871Z,43.47
2019-02-05T16:35:14.179Z,28.80
2019-02-05T16:37:42.599Z,34.33
2019-02-05T16:40:14.114Z,29.03
2019-02-05T16:42:42.387Z,33.70
2019-02-05T16:45:14.059Z,31.83
2019-02-05T16:47:42.334Z,33.30
2019-02-05T16:50:16.150Z,32.67
2019-02-05T16:52:44.425Z,31.40
2019-02-05T16:55:12.814Z,37.47
2019-02-05T16:57:41.163Z,37.70
2019-02-05T17:00:18.379Z,32.37
2019-02-05T17:02:46.635Z,38.43
2019-02-05T17:05:15.735Z,31.87
2019-02-05T17:07:44.007Z,35.67
2019-02-05T17:10:17.754Z,34.53
2019-02-05T17:12:46.398Z,30.60
2019-02-05T17:15:16.747Z,31.63
2019-02-05T17:17:45.019Z,32.53
2019-02-05T17:20:22.275Z,36.33
2019-02-05T17:22:50.548Z,29.40
2019-02-05T17:25:23.465Z,32.17
2019-02-05T17:27:51.877Z,32.30
2019-02-05T17:30:25.889Z,35.23
2019-02-05T17:32:54.151Z,34.00
2019-02-05T17:35:22.531Z,40.87
2019-02-05T17:37:51.066Z,33.43
2019-02-05T17:40:24.936Z,37.60
2019-02-05T17:42:54.422Z,30.57
2019-02-05T17:45:31.524Z,30.43
2019-02-05T17:48:01.326Z,33.30
2019-02-05T17:50:29.674Z,31.20
2019-02-05T17:52:58.342Z,31.17
2019-02-05T17:55:26.736Z,29.20
2019-02-05T17:57:55.101Z,32.00
2019-02-05T18:00:27.968Z,29.60
2019-02-05T18:02:56.600Z,30.40
2019-02-05T18:05:24.974Z,32.33
2019-02-05T18:07:53.996Z,30.20
2019-02-05T18:10:26.760Z,29.77
2019-02-05T18:12:55.112Z,32.00
2019-02-05T18:15:27.118Z,29.53
2019-02-05T18:17:55.535Z,33.27
2019-02-05T18:20:23.995Z,29.43
2019-02-05T18:22:52.826Z,33.67
2019-02-05T18:25:21.432Z,35.87
2019-02-05T18:27:49.891Z,31.53
2019-02-05T18:30:29.363Z,31.13
2019-02-05T18:33:03.858Z,30.00
2019-02-05T18:35:28.155Z,34.57
2019-02-05T18:37:57.125Z,34.03
2019-02-05T18:40:27.128Z,30.17
2019-02-05T18:42:57.191Z,30.47
2019-02-05T18:45:26.693Z,33.63
2019-02-05T18:47:55.266Z,33.33
2019-02-05T18:50:28.507Z,36.73
2019-02-05T18:52:57.144Z,32.47
2019-02-05T18:55:31.751Z,41.73
2019-02-05T18:58:09.183Z,33.20
2019-02-05T19:00:39.318Z,33.47
2019-02-05T19:03:15.365Z,34.43
2019-02-05T19:05:38.294Z,31.73
2019-02-05T19:08:07.013Z,34.80
2019-02-05T19:10:35.571Z,34.47
2019-02-05T19:13:04.350Z,34.83
2019-02-05T19:15:34.857Z,32.73
2019-02-05T19:18:03.861Z,37.40
2019-02-05T19:20:33.898Z,36.80
2019-02-05T19:23:03.936Z,37.23
2019-02-05T19:25:37.070Z,35.40
2019-02-05T19:28:05.724Z,38.53
2019-02-05T19:30:36.686Z,39.70
2019-02-05T19:33:05.373Z,38.77
2019-02-05T19:35:33.879Z,36.57
2019-02-05T19:38:02.390Z,38.00
2019-02-05T19:40:30.902Z,39.33
2019-02-05T19:42:59.449Z,41.20
2019-02-05T19:45:44.858Z,39.47
2019-02-05T19:48:15.117Z,41.80
2019-02-05T19:50:44.692Z,42.17
2019-02-05T19:53:13.191Z,40.23
2019-02-05T19:55:41.676Z,42.83
2019-02-05T19:58:10.508Z,42.80
2019-02-05T20:00:38.981Z,44.30
2019-02-05T20:03:07.493Z,47.93
2019-02-05T20:05:35.977Z,43.17
2019-02-05T20:08:05.323Z,44.53
2019-02-05T20:10:33.775Z,41.23
2019-02-05T20:13:02.098Z,43.27
2019-02-05T20:15:30.457Z,40.47
2019-02-05T20:17:58.862Z,42.43
2019-02-05T20:20:27.365Z,43.17
2019-02-05T20:22:58.646Z,42.30
2019-02-05T20:25:27.188Z,45.90
2019-02-05T20:27:55.743Z,41.30
2019-02-05T20:30:27.774Z,44.37
2019-02-05T20:32:56.228Z,47.37
2019-02-05T20:35:25.153Z,45.83
2019-02-05T20:37:54.039Z,46.17
2019-02-05T20:40:25.034Z,44.97
2019-02-05T20:42:53.504Z,46.60
2019-02-05T20:45:22.102Z,47.33
2019-02-05T20:47:50.576Z,41.57
2019-02-05T20:50:21.209Z,39.63
2019-02-05T20:52:49.779Z,48.47
2019-02-05T20:55:22.079Z,47.60
2019-02-05T20:57:50.603Z,45.20
2019-02-05T21:00:25.116Z,47.33
2019-02-05T21:02:54.027Z,49.50
2019-02-05T21:05:23.156Z,42.90
2019-02-05T21:07:52.186Z,44.43
2019-02-05T21:10:23.449Z,43.90
2019-02-05T21:12:52.046Z,47.07
2019-02-05T21:15:21.394Z,43.97
2019-02-05T21:17:49.967Z,44.87
2019-02-05T21:20:28.894Z,51.60
2019-02-05T21:22:50.935Z,49.70
2019-02-05T21:25:20.810Z,46.43
2019-02-05T21:27:49.273Z,45.67
2019-02-05T21:30:22.305Z,46.67
2019-02-05T21:32:50.859Z,46.43
2019-02-05T21:35:19.255Z,45.17
2019-02-05T21:37:47.653Z,44.03
2019-02-05T21:40:31.405Z,46.57
2019-02-05T21:42:58.581Z,47.53
2019-02-05T21:45:30.799Z,47.47
2019-02-05T21:47:59.232Z,45.67
2019-02-05T21:50:28.622Z,44.13
2019-02-05T21:52:57.326Z,44.83
2019-02-05T21:55:26.607Z,45.50
2019-02-05T21:57:55.077Z,44.87
2019-02-05T22:00:30.991Z,44.90
2019-02-05T22:02:59.439Z,44.33
2019-02-05T22:05:29.358Z,45.97
2019-02-05T22:07:57.799Z,46.60
2019-02-05T22:10:26.341Z,43.80
2019-02-05T22:12:54.758Z,44.63
2019-02-05T22:15:23.412Z,42.23
2019-02-05T22:17:51.931Z,46.73
2019-02-05T22:20:28.358Z,43.80
2019-02-05T22:22:57.534Z,44.27
2019-02-05T22:25:33.594Z,43.23
2019-02-05T22:28:01.976Z,45.00
2019-02-05T22:30:38.499Z,51.70
2019-02-05T22:33:09.709Z,46.17
2019-02-05T22:35:38.015Z,47.67
2019-02-05T22:38:06.394Z,41.43
2019-02-05T22:40:35.648Z,45.03
2019-02-05T22:43:04.279Z,45.03
2019-02-05T22:45:32.735Z,46.60
2019-02-05T22:48:01.063Z,48.10
2019-02-05T22:50:32.108Z,45.80
2019-02-05T22:53:01.187Z,47.57
2019-02-05T22:55:29.553Z,48.53
2019-02-05T22:57:57.888Z,50.87
2019-02-05T23:00:42.840Z,45.63
2019-02-05T23:03:11.484Z,51.70
2019-02-05T23:06:02.480Z,46.47
2019-02-05T23:08:30.816Z,45.03
2019-02-05T23:11:05.091Z,43.10
2019-02-05T23:13:35.559Z,41.97
2019-02-05T23:16:03.971Z,43.67
2019-02-05T23:18:32.232Z,45.77
2019-02-05T23:21:00.510Z,44.30
2019-02-05T23:23:28.824Z,49.33
2019-02-05T23:25:57.104Z,45.03
2019-02-05T23:28:25.383Z,42.70
2019-02-05T23:30:53.932Z,43.37
2019-02-05T23:33:22.177Z,46.63
2019-02-05T23:35:50.450Z,44.80
2019-02-05T23:38:18.712Z,42.57
2019-02-05T23:40:46.991Z,42.40
2019-02-05T23:43:15.247Z,39.47
2019-02-05T23:45:43.529Z,37.67
2019-02-05T23:48:11.857Z,36.50
2019-02-05T23:50:40.133Z,36.53
2019-02-05T23:53:08.483Z,39.37
2019-02-05T23:55:36.835Z,36.50
2019-02-05T23:58:05.739Z,34.67
